sensor_id;sensor_type;location;lat;lon;timestamp;P1;durP1;ratioP1;P2;durP2;ratioP2
7997;SDS011;4044;49.814;7.828;2023-08-31T00:01:08;14.43;;;9.93;;
7997;SDS011;4044;49.814;7.828;2023-08-31T00:03:34;17.67;;;9.73;;
7997;SDS011;4044;49.814;7.828;2023-08-31T00:06:02;15.83;;;10.10;;
7997;SDS011;4044;49.814;7.828;2023-08-31T00:08:29;13.47;;;9.03;;
7997;SDS011;4044;49.814;7.828;2023-08-31T00:10:58;16.40;;;9.97;;
7997;SDS011;4044;49.814;7.828;2023-08-31T00:13:28;15.97;;;10.77;;
7997;SDS011;4044;49.814;7.828;2023-08-31T00:15:54;14.73;;;10.77;;
7997;SDS011;4044;49.814;7.828;2023-08-31T00:18:21;19.93;;;11.53;;
7997;SDS011;4044;49.814;7.828;2023-08-31T00:20:46;20.93;;;11.20;;
7997;SDS011;4044;49.814;7.828;2023-08-31T00:23:12;15.27;;;10.23;;
7997;SDS011;4044;49.814;7.828;2023-08-31T00:25:38;17.50;;;10.97;;
7997;SDS011;4044;49.814;7.828;2023-08-31T00:28:03;13.57;;;10.33;;
7997;SDS011;4044;49.814;7.828;2023-08-31T00:30:30;16.77;;;11.30;;
7997;SDS011;4044;49.814;7.828;2023-08-31T00:32:57;23.00;;;12.30;;
7997;SDS011;4044;49.814;7.828;2023-08-31T00:35:24;19.30;;;11.43;;
7997;SDS011;4044;49.814;7.828;2023-08-31T00:37:52;19.90;;;11.83;;
7997;SDS011;4044;49.814;7.828;2023-08-31T00:40:22;17.83;;;11.50;;
7997;SDS011;4044;49.814;7.828;2023-08-31T00:42:48;20.93;;;11.10;;
7997;SDS011;4044;49.814;7.828;2023-08-31T00:45:14;16.33;;;10.97;;
7997;SDS011;4044;49.814;7.828;2023-08-31T00:47:40;18.00;;;11.20;;
7997;SDS011;4044;49.814;7.828;2023-08-31T00:50:06;14.93;;;10.50;;
7997;SDS011;4044;49.814;7.828;2023-08-31T00:52:33;19.57;;;11.27;;
7997;SDS011;4044;49.814;7.828;2023-08-31T00:54:59;19.07;;;11.53;;
7997;SDS011;4044;49.814;7.828;2023-08-31T00:57:30;15.53;;;10.37;;
7997;SDS011;4044;49.814;7.828;2023-08-31T00:59:55;19.70;;;11.80;;
7997;SDS011;4044;49.814;7.828;2023-08-31T01:02:22;16.03;;;10.73;;
7997;SDS011;4044;49.814;7.828;2023-08-31T01:05:08;17.57;;;11.80;;
7997;SDS011;4044;49.814;7.828;2023-08-31T01:07:57;14.03;;;10.23;;
7997;SDS011;4044;49.814;7.828;2023-08-31T01:10:34;15.80;;;10.27;;
7997;SDS011;4044;49.814;7.828;2023-08-31T01:13:02;14.33;;;10.80;;
7997;SDS011;4044;49.814;7.828;2023-08-31T01:15:38;15.60;;;10.80;;
7997;SDS011;4044;49.814;7.828;2023-08-31T01:18:08;17.00;;;11.07;;
7997;SDS011;4044;49.814;7.828;2023-08-31T01:20:38;15.37;;;11.07;;
7997;SDS011;4044;49.814;7.828;2023-08-31T01:23:15;17.20;;;10.70;;
7997;SDS011;4044;49.814;7.828;2023-08-31T01:25:43;16.20;;;11.37;;
7997;SDS011;4044;49.814;7.828;2023-08-31T01:28:10;17.50;;;11.63;;
7997;SDS011;4044;49.814;7.828;2023-08-31T01:30:36;19.93;;;11.47;;
7997;SDS011;4044;49.814;7.828;2023-08-31T01:33:02;16.57;;;11.07;;
7997;SDS011;4044;49.814;7.828;2023-08-31T01:35:29;17.07;;;10.30;;
7997;SDS011;4044;49.814;7.828;2023-08-31T01:38:03;14.63;;;10.30;;
7997;SDS011;4044;49.814;7.828;2023-08-31T01:40:38;13.37;;;10.00;;
7997;SDS011;4044;49.814;7.828;2023-08-31T01:43:09;15.63;;;10.83;;
7997;SDS011;4044;49.814;7.828;2023-08-31T01:45:36;13.70;;;10.20;;
7997;SDS011;4044;49.814;7.828;2023-08-31T01:48:03;17.37;;;11.33;;
7997;SDS011;4044;49.814;7.828;2023-08-31T01:50:29;18.90;;;10.93;;
7997;SDS011;4044;49.814;7.828;2023-08-31T01:52:54;16.63;;;10.93;;
7997;SDS011;4044;49.814;7.828;2023-08-31T01:55:21;13.30;;;10.10;;
7997;SDS011;4044;49.814;7.828;2023-08-31T01:57:47;15.97;;;10.13;;
7997;SDS011;4044;49.814;7.828;2023-08-31T02:00:13;13.60;;;10.00;;
7997;SDS011;4044;49.814;7.828;2023-08-31T02:02:41;15.20;;;11.47;;
7997;SDS011;4044;49.814;7.828;2023-08-31T02:05:07;22.87;;;13.63;;
7997;SDS011;4044;49.814;7.828;2023-08-31T02:07:33;15.83;;;11.20;;
7997;SDS011;4044;49.814;7.828;2023-08-31T02:09:58;20.67;;;12.90;;
7997;SDS011;4044;49.814;7.828;2023-08-31T02:12:24;22.77;;;12.97;;
7997;SDS011;4044;49.814;7.828;2023-08-31T02:14:49;16.03;;;11.47;;
7997;SDS011;4044;49.814;7.828;2023-08-31T02:17:15;20.83;;;13.00;;
7997;SDS011;4044;49.814;7.828;2023-08-31T02:19:40;18.47;;;12.60;;
7997;SDS011;4044;49.814;7.828;2023-08-31T02:22:06;22.37;;;12.90;;
7997;SDS011;4044;49.814;7.828;2023-08-31T02:24:31;22.20;;;12.20;;
7997;SDS011;4044;49.814;7.828;2023-08-31T02:26:57;19.93;;;12.17;;
7997;SDS011;4044;49.814;7.828;2023-08-31T02:29:22;17.90;;;12.33;;
7997;SDS011;4044;49.814;7.828;2023-08-31T02:31:48;18.03;;;12.60;;
7997;SDS011;4044;49.814;7.828;2023-08-31T02:34:14;26.53;;;13.93;;
7997;SDS011;4044;49.814;7.828;2023-08-31T02:36:39;25.33;;;14.60;;
7997;SDS011;4044;49.814;7.828;2023-08-31T02:39:05;25.23;;;13.60;;
7997;SDS011;4044;49.814;7.828;2023-08-31T02:41:31;22.17;;;14.20;;
7997;SDS011;4044;49.814;7.828;2023-08-31T02:43:57;22.30;;;14.00;;
7997;SDS011;4044;49.814;7.828;2023-08-31T02:46:22;27.60;;;15.10;;
7997;SDS011;4044;49.814;7.828;2023-08-31T02:48:49;26.47;;;15.03;;
7997;SDS011;4044;49.814;7.828;2023-08-31T02:51:15;24.30;;;15.03;;
7997;SDS011;4044;49.814;7.828;2023-08-31T02:53:41;25.50;;;15.83;;
7997;SDS011;4044;49.814;7.828;2023-08-31T02:56:06;24.37;;;15.60;;
7997;SDS011;4044;49.814;7.828;2023-08-31T02:58:32;26.77;;;15.07;;
7997;SDS011;4044;49.814;7.828;2023-08-31T03:01:08;25.57;;;14.87;;
7997;SDS011;4044;49.814;7.828;2023-08-31T03:03:38;27.97;;;15.80;;
7997;SDS011;4044;49.814;7.828;2023-08-31T03:06:06;23.20;;;14.07;;
7997;SDS011;4044;49.814;7.828;2023-08-31T03:08:35;24.10;;;14.60;;
7997;SDS011;4044;49.814;7.828;2023-08-31T03:11:02;25.17;;;14.90;;
7997;SDS011;4044;49.814;7.828;2023-08-31T03:13:29;24.70;;;14.57;;
7997;SDS011;4044;49.814;7.828;2023-08-31T03:15:54;24.63;;;14.03;;
7997;SDS011;4044;49.814;7.828;2023-08-31T03:18:21;34.43;;;16.80;;
7997;SDS011;4044;49.814;7.828;2023-08-31T03:20:47;26.40;;;15.80;;
7997;SDS011;4044;49.814;7.828;2023-08-31T03:23:12;20.53;;;12.67;;
7997;SDS011;4044;49.814;7.828;2023-08-31T03:25:38;22.23;;;13.33;;
7997;SDS011;4044;49.814;7.828;2023-08-31T03:28:04;22.30;;;13.67;;
7997;SDS011;4044;49.814;7.828;2023-08-31T03:30:29;18.33;;;12.83;;
7997;SDS011;4044;49.814;7.828;2023-08-31T03:32:55;18.17;;;12.80;;
7997;SDS011;4044;49.814;7.828;2023-08-31T03:35:20;16.40;;;11.07;;
7997;SDS011;4044;49.814;7.828;2023-08-31T03:37:51;14.30;;;10.43;;
7997;SDS011;4044;49.814;7.828;2023-08-31T03:40:17;20.87;;;12.63;;
7997;SDS011;4044;49.814;7.828;2023-08-31T03:42:42;22.63;;;12.37;;
7997;SDS011;4044;49.814;7.828;2023-08-31T03:45:08;12.50;;;9.13;;
7997;SDS011;4044;49.814;7.828;2023-08-31T03:47:34;11.67;;;8.57;;
7997;SDS011;4044;49.814;7.828;2023-08-31T03:49:59;19.73;;;10.93;;
7997;SDS011;4044;49.814;7.828;2023-08-31T03:52:25;18.10;;;10.33;;
7997;SDS011;4044;49.814;7.828;2023-08-31T03:54:51;22.33;;;13.07;;
7997;SDS011;4044;49.814;7.828;2023-08-31T03:57:17;23.67;;;13.10;;
7997;SDS011;4044;49.814;7.828;2023-08-31T03:59:43;24.83;;;12.23;;
7997;SDS011;4044;49.814;7.828;2023-08-31T04:02:08;19.77;;;12.70;;
7997;SDS011;4044;49.814;7.828;2023-08-31T04:04:34;18.73;;;12.07;;
7997;SDS011;4044;49.814;7.828;2023-08-31T04:07:00;17.23;;;11.33;;
7997;SDS011;4044;49.814;7.828;2023-08-31T04:09:25;16.97;;;11.50;;
7997;SDS011;4044;49.814;7.828;2023-08-31T04:11:51;18.27;;;11.00;;
7997;SDS011;4044;49.814;7.828;2023-08-31T04:14:16;15.83;;;11.10;;
7997;SDS011;4044;49.814;7.828;2023-08-31T04:16:43;18.33;;;11.23;;
7997;SDS011;4044;49.814;7.828;2023-08-31T04:19:09;22.07;;;13.43;;
7997;SDS011;4044;49.814;7.828;2023-08-31T04:21:34;23.93;;;12.83;;
7997;SDS011;4044;49.814;7.828;2023-08-31T04:24:01;19.30;;;11.60;;
7997;SDS011;4044;49.814;7.828;2023-08-31T04:26:26;17.00;;;11.53;;
7997;SDS011;4044;49.814;7.828;2023-08-31T04:28:52;17.70;;;11.10;;
7997;SDS011;4044;49.814;7.828;2023-08-31T04:31:18;18.10;;;12.53;;
7997;SDS011;4044;49.814;7.828;2023-08-31T04:33:44;24.57;;;14.23;;
7997;SDS011;4044;49.814;7.828;2023-08-31T04:36:10;15.87;;;11.23;;
7997;SDS011;4044;49.814;7.828;2023-08-31T04:38:37;18.83;;;11.80;;
7997;SDS011;4044;49.814;7.828;2023-08-31T04:41:03;30.00;;;15.00;;
7997;SDS011;4044;49.814;7.828;2023-08-31T04:43:28;22.27;;;13.10;;
7997;SDS011;4044;49.814;7.828;2023-08-31T04:45:54;28.63;;;13.90;;
7997;SDS011;4044;49.814;7.828;2023-08-31T04:48:20;21.57;;;13.27;;
7997;SDS011;4044;49.814;7.828;2023-08-31T04:50:46;25.23;;;14.17;;
7997;SDS011;4044;49.814;7.828;2023-08-31T04:53:12;23.40;;;13.00;;
7997;SDS011;4044;49.814;7.828;2023-08-31T04:55:38;21.00;;;13.40;;
7997;SDS011;4044;49.814;7.828;2023-08-31T04:58:04;31.63;;;16.43;;
7997;SDS011;4044;49.814;7.828;2023-08-31T05:00:29;24.17;;;14.47;;
7997;SDS011;4044;49.814;7.828;2023-08-31T05:02:55;21.87;;;13.30;;
7997;SDS011;4044;49.814;7.828;2023-08-31T05:05:21;23.60;;;13.70;;
7997;SDS011;4044;49.814;7.828;2023-08-31T05:07:46;25.27;;;13.70;;
7997;SDS011;4044;49.814;7.828;2023-08-31T05:10:12;28.67;;;15.63;;
7997;SDS011;4044;49.814;7.828;2023-08-31T05:12:38;25.47;;;13.50;;
7997;SDS011;4044;49.814;7.828;2023-08-31T05:15:04;25.90;;;14.60;;
7997;SDS011;4044;49.814;7.828;2023-08-31T05:17:29;24.27;;;13.63;;
7997;SDS011;4044;49.814;7.828;2023-08-31T05:19:56;34.17;;;16.00;;
7997;SDS011;4044;49.814;7.828;2023-08-31T05:22:21;31.30;;;16.43;;
7997;SDS011;4044;49.814;7.828;2023-08-31T05:24:47;24.80;;;14.90;;
7997;SDS011;4044;49.814;7.828;2023-08-31T05:27:13;26.23;;;14.67;;
7997;SDS011;4044;49.814;7.828;2023-08-31T05:29:38;20.37;;;12.20;;
7997;SDS011;4044;49.814;7.828;2023-08-31T05:32:04;23.57;;;13.80;;
7997;SDS011;4044;49.814;7.828;2023-08-31T05:34:30;30.13;;;16.20;;
7997;SDS011;4044;49.814;7.828;2023-08-31T05:36:58;28.40;;;15.77;;
7997;SDS011;4044;49.814;7.828;2023-08-31T05:39:23;36.80;;;18.90;;
7997;SDS011;4044;49.814;7.828;2023-08-31T05:41:49;28.63;;;16.47;;
7997;SDS011;4044;49.814;7.828;2023-08-31T05:44:14;43.13;;;18.33;;
7997;SDS011;4044;49.814;7.828;2023-08-31T05:46:40;31.17;;;15.80;;
7997;SDS011;4044;49.814;7.828;2023-08-31T05:49:06;21.97;;;12.90;;
7997;SDS011;4044;49.814;7.828;2023-08-31T05:51:32;21.73;;;11.60;;
7997;SDS011;4044;49.814;7.828;2023-08-31T05:53:57;24.43;;;13.77;;
7997;SDS011;4044;49.814;7.828;2023-08-31T05:56:23;19.40;;;12.37;;
7997;SDS011;4044;49.814;7.828;2023-08-31T05:58:49;23.23;;;13.73;;
7997;SDS011;4044;49.814;7.828;2023-08-31T06:01:15;16.67;;;11.33;;
7997;SDS011;4044;49.814;7.828;2023-08-31T06:03:41;27.00;;;14.63;;
7997;SDS011;4044;49.814;7.828;2023-08-31T06:06:06;26.00;;;12.53;;
7997;SDS011;4044;49.814;7.828;2023-08-31T06:08:32;23.87;;;12.63;;
7997;SDS011;4044;49.814;7.828;2023-08-31T06:10:58;28.23;;;14.40;;
7997;SDS011;4044;49.814;7.828;2023-08-31T06:13:24;19.60;;;11.73;;
7997;SDS011;4044;49.814;7.828;2023-08-31T06:15:49;30.97;;;14.87;;
7997;SDS011;4044;49.814;7.828;2023-08-31T06:18:15;19.63;;;11.73;;
7997;SDS011;4044;49.814;7.828;2023-08-31T06:20:40;29.67;;;15.20;;
7997;SDS011;4044;49.814;7.828;2023-08-31T06:23:06;16.90;;;11.90;;
7997;SDS011;4044;49.814;7.828;2023-08-31T06:25:32;16.67;;;10.93;;
7997;SDS011;4044;49.814;7.828;2023-08-31T06:27:57;21.67;;;12.47;;
7997;SDS011;4044;49.814;7.828;2023-08-31T06:30:23;21.83;;;12.87;;
7997;SDS011;4044;49.814;7.828;2023-08-31T06:32:49;14.97;;;10.67;;
7997;SDS011;4044;49.814;7.828;2023-08-31T06:35:15;15.80;;;11.47;;
7997;SDS011;4044;49.814;7.828;2023-08-31T06:37:41;23.33;;;12.67;;
7997;SDS011;4044;49.814;7.828;2023-08-31T06:40:07;23.87;;;13.13;;
7997;SDS011;4044;49.814;7.828;2023-08-31T06:42:34;15.73;;;11.27;;
7997;SDS011;4044;49.814;7.828;2023-08-31T06:45:01;19.97;;;11.70;;
7997;SDS011;4044;49.814;7.828;2023-08-31T06:47:28;20.30;;;11.93;;
7997;SDS011;4044;49.814;7.828;2023-08-31T06:49:53;21.07;;;11.93;;
7997;SDS011;4044;49.814;7.828;2023-08-31T06:52:19;15.30;;;9.77;;
7997;SDS011;4044;49.814;7.828;2023-08-31T06:54:44;17.87;;;9.67;;
7997;SDS011;4044;49.814;7.828;2023-08-31T06:57:10;18.40;;;8.90;;
7997;SDS011;4044;49.814;7.828;2023-08-31T06:59:35;14.93;;;9.00;;
7997;SDS011;4044;49.814;7.828;2023-08-31T07:02:01;15.23;;;8.90;;
7997;SDS011;4044;49.814;7.828;2023-08-31T07:04:26;13.57;;;9.37;;
7997;SDS011;4044;49.814;7.828;2023-08-31T07:06:52;12.70;;;8.47;;
7997;SDS011;4044;49.814;7.828;2023-08-31T07:09:18;11.67;;;8.53;;
7997;SDS011;4044;49.814;7.828;2023-08-31T07:11:43;16.80;;;9.57;;
7997;SDS011;4044;49.814;7.828;2023-08-31T07:14:09;14.57;;;8.53;;
7997;SDS011;4044;49.814;7.828;2023-08-31T07:16:34;15.03;;;8.07;;
7997;SDS011;4044;49.814;7.828;2023-08-31T07:19:00;17.27;;;8.07;;
7997;SDS011;4044;49.814;7.828;2023-08-31T07:21:25;11.23;;;7.37;;
7997;SDS011;4044;49.814;7.828;2023-08-31T07:23:51;13.83;;;8.10;;
7997;SDS011;4044;49.814;7.828;2023-08-31T07:26:17;12.87;;;7.13;;
7997;SDS011;4044;49.814;7.828;2023-08-31T07:28:43;15.50;;;6.90;;
7997;SDS011;4044;49.814;7.828;2023-08-31T07:31:08;10.37;;;7.37;;
7997;SDS011;4044;49.814;7.828;2023-08-31T07:33:34;8.13;;;6.90;;
7997;SDS011;4044;49.814;7.828;2023-08-31T07:36:01;8.70;;;6.83;;
7997;SDS011;4044;49.814;7.828;2023-08-31T07:38:29;11.60;;;6.13;;
7997;SDS011;4044;49.814;7.828;2023-08-31T07:40:56;9.93;;;6.60;;
7997;SDS011;4044;49.814;7.828;2023-08-31T07:43:21;7.57;;;5.90;;
7997;SDS011;4044;49.814;7.828;2023-08-31T07:45:47;10.13;;;5.97;;
7997;SDS011;4044;49.814;7.828;2023-08-31T07:48:13;7.30;;;5.87;;
7997;SDS011;4044;49.814;7.828;2023-08-31T07:50:43;6.37;;;5.20;;
7997;SDS011;4044;49.814;7.828;2023-08-31T07:53:09;12.83;;;6.17;;
7997;SDS011;4044;49.814;7.828;2023-08-31T07:55:34;11.43;;;6.37;;
7997;SDS011;4044;49.814;7.828;2023-08-31T07:58:02;8.53;;;5.37;;
7997;SDS011;4044;49.814;7.828;2023-08-31T08:00:28;5.70;;;4.83;;
7997;SDS011;4044;49.814;7.828;2023-08-31T08:02:53;6.87;;;5.43;;
7997;SDS011;4044;49.814;7.828;2023-08-31T08:05:19;10.13;;;4.73;;
7997;SDS011;4044;49.814;7.828;2023-08-31T08:07:44;9.87;;;4.53;;
7997;SDS011;4044;49.814;7.828;2023-08-31T08:10:11;7.50;;;4.73;;
7997;SDS011;4044;49.814;7.828;2023-08-31T08:12:37;8.73;;;4.50;;
7997;SDS011;4044;49.814;7.828;2023-08-31T08:15:04;6.77;;;4.47;;
7997;SDS011;4044;49.814;7.828;2023-08-31T08:17:32;9.30;;;4.03;;
7997;SDS011;4044;49.814;7.828;2023-08-31T08:19:57;5.67;;;3.70;;
7997;SDS011;4044;49.814;7.828;2023-08-31T08:22:24;6.50;;;4.17;;
7997;SDS011;4044;49.814;7.828;2023-08-31T08:24:49;7.37;;;3.57;;
7997;SDS011;4044;49.814;7.828;2023-08-31T08:27:15;9.60;;;3.87;;
7997;SDS011;4044;49.814;7.828;2023-08-31T08:29:42;9.80;;;3.30;;
7997;SDS011;4044;49.814;7.828;2023-08-31T08:32:08;6.30;;;3.10;;
7997;SDS011;4044;49.814;7.828;2023-08-31T08:34:34;4.43;;;2.90;;
7997;SDS011;4044;49.814;7.828;2023-08-31T08:37:00;3.17;;;2.70;;
7997;SDS011;4044;49.814;7.828;2023-08-31T08:39:25;7.90;;;2.90;;
7997;SDS011;4044;49.814;7.828;2023-08-31T08:41:51;2.90;;;2.33;;
7997;SDS011;4044;49.814;7.828;2023-08-31T08:44:19;4.55;;;2.53;;
7997;SDS011;4044;49.814;7.828;2023-08-31T08:46:46;4.23;;;2.43;;
7997;SDS011;4044;49.814;7.828;2023-08-31T08:49:13;4.20;;;2.50;;
7997;SDS011;4044;49.814;7.828;2023-08-31T08:51:40;2.03;;;1.83;;
7997;SDS011;4044;49.814;7.828;2023-08-31T08:54:06;7.33;;;2.37;;
7997;SDS011;4044;49.814;7.828;2023-08-31T08:56:32;3.03;;;2.40;;
7997;SDS011;4044;49.814;7.828;2023-08-31T08:58:59;3.17;;;2.30;;
7997;SDS011;4044;49.814;7.828;2023-08-31T09:01:25;4.60;;;2.00;;
7997;SDS011;4044;49.814;7.828;2023-08-31T09:03:51;4.65;;;2.25;;
7997;SDS011;4044;49.814;7.828;2023-08-31T09:06:17;3.63;;;2.17;;
7997;SDS011;4044;49.814;7.828;2023-08-31T09:08:42;2.63;;;1.75;;
7997;SDS011;4044;49.814;7.828;2023-08-31T09:11:08;3.50;;;2.08;;
7997;SDS011;4044;49.814;7.828;2023-08-31T09:13:33;2.90;;;2.03;;
7997;SDS011;4044;49.814;7.828;2023-08-31T09:15:59;3.33;;;2.00;;
7997;SDS011;4044;49.814;7.828;2023-08-31T09:18:28;4.53;;;1.52;;
7997;SDS011;4044;49.814;7.828;2023-08-31T09:20:57;2.88;;;1.83;;
7997;SDS011;4044;49.814;7.828;2023-08-31T09:23:23;3.50;;;1.80;;
7997;SDS011;4044;49.814;7.828;2023-08-31T09:25:49;2.72;;;1.63;;
7997;SDS011;4044;49.814;7.828;2023-08-31T09:28:28;2.33;;;1.70;;
7997;SDS011;4044;49.814;7.828;2023-08-31T09:31:07;2.33;;;2.00;;
7997;SDS011;4044;49.814;7.828;2023-08-31T09:33:34;3.80;;;1.92;;
7997;SDS011;4044;49.814;7.828;2023-08-31T09:36:00;3.97;;;1.70;;
7997;SDS011;4044;49.814;7.828;2023-08-31T09:38:26;1.60;;;1.50;;
7997;SDS011;4044;49.814;7.828;2023-08-31T09:40:53;3.65;;;1.63;;
7997;SDS011;4044;49.814;7.828;2023-08-31T09:43:29;1.85;;;1.70;;
7997;SDS011;4044;49.814;7.828;2023-08-31T09:45:55;2.17;;;1.80;;
7997;SDS011;4044;49.814;7.828;2023-08-31T09:48:21;3.47;;;1.80;;
7997;SDS011;4044;49.814;7.828;2023-08-31T09:50:48;2.90;;;1.85;;
7997;SDS011;4044;49.814;7.828;2023-08-31T09:53:16;2.25;;;1.40;;
7997;SDS011;4044;49.814;7.828;2023-08-31T09:55:43;2.88;;;1.58;;
7997;SDS011;4044;49.814;7.828;2023-08-31T09:58:09;1.75;;;1.45;;
7997;SDS011;4044;49.814;7.828;2023-08-31T10:00:35;2.97;;;1.40;;
7997;SDS011;4044;49.814;7.828;2023-08-31T10:03:03;1.80;;;1.50;;
7997;SDS011;4044;49.814;7.828;2023-08-31T10:05:30;1.90;;;1.80;;
7997;SDS011;4044;49.814;7.828;2023-08-31T10:07:57;2.47;;;1.65;;
7997;SDS011;4044;49.814;7.828;2023-08-31T10:10:23;2.58;;;1.60;;
7997;SDS011;4044;49.814;7.828;2023-08-31T10:12:49;2.67;;;1.85;;
7997;SDS011;4044;49.814;7.828;2023-08-31T10:15:17;2.20;;;1.80;;
7997;SDS011;4044;49.814;7.828;2023-08-31T10:17:43;1.63;;;1.50;;
7997;SDS011;4044;49.814;7.828;2023-08-31T10:20:10;1.70;;;1.48;;
7997;SDS011;4044;49.814;7.828;2023-08-31T10:22:38;2.20;;;1.70;;
7997;SDS011;4044;49.814;7.828;2023-08-31T10:25:04;1.75;;;1.60;;
7997;SDS011;4044;49.814;7.828;2023-08-31T10:30:12;2.22;;;1.70;;
7997;SDS011;4044;49.814;7.828;2023-08-31T10:32:41;2.85;;;1.80;;
7997;SDS011;4044;49.814;7.828;2023-08-31T10:35:09;2.40;;;2.00;;
7997;SDS011;4044;49.814;7.828;2023-08-31T10:37:35;2.38;;;1.63;;
7997;SDS011;4044;49.814;7.828;2023-08-31T10:40:10;3.35;;;1.70;;
7997;SDS011;4044;49.814;7.828;2023-08-31T10:42:46;2.05;;;1.75;;
7997;SDS011;4044;49.814;7.828;2023-08-31T10:45:41;3.85;;;1.55;;
7997;SDS011;4044;49.814;7.828;2023-08-31T10:48:08;3.42;;;1.80;;
7997;SDS011;4044;49.814;7.828;2023-08-31T10:50:34;1.98;;;1.70;;
7997;SDS011;4044;49.814;7.828;2023-08-31T10:53:09;2.08;;;1.90;;
7997;SDS011;4044;49.814;7.828;2023-08-31T10:55:55;3.42;;;1.75;;
7997;SDS011;4044;49.814;7.828;2023-08-31T10:58:20;2.08;;;1.83;;
7997;SDS011;4044;49.814;7.828;2023-08-31T11:00:47;2.00;;;1.75;;
7997;SDS011;4044;49.814;7.828;2023-08-31T11:03:16;1.95;;;1.85;;
7997;SDS011;4044;49.814;7.828;2023-08-31T11:05:51;3.17;;;1.98;;
7997;SDS011;4044;49.814;7.828;2023-08-31T11:08:24;2.38;;;1.80;;
7997;SDS011;4044;49.814;7.828;2023-08-31T11:10:51;4.22;;;2.00;;
7997;SDS011;4044;49.814;7.828;2023-08-31T11:13:20;3.60;;;2.10;;
7997;SDS011;4044;49.814;7.828;2023-08-31T11:15:48;1.63;;;1.52;;
7997;SDS011;4044;49.814;7.828;2023-08-31T11:18:14;1.83;;;1.70;;
7997;SDS011;4044;49.814;7.828;2023-08-31T11:20:42;2.05;;;1.80;;
7997;SDS011;4044;49.814;7.828;2023-08-31T11:23:08;1.73;;;1.50;;
7997;SDS011;4044;49.814;7.828;2023-08-31T11:25:34;1.92;;;1.77;;
7997;SDS011;4044;49.814;7.828;2023-08-31T11:28:01;3.28;;;2.00;;
7997;SDS011;4044;49.814;7.828;2023-08-31T11:30:32;2.97;;;1.90;;
7997;SDS011;4044;49.814;7.828;2023-08-31T11:33:08;4.35;;;2.28;;
7997;SDS011;4044;49.814;7.828;2023-08-31T11:35:36;2.63;;;1.88;;
7997;SDS011;4044;49.814;7.828;2023-08-31T11:38:04;3.22;;;2.92;;
7997;SDS011;4044;49.814;7.828;2023-08-31T11:40:30;7.00;;;5.18;;
7997;SDS011;4044;49.814;7.828;2023-08-31T11:42:57;3.55;;;2.50;;
7997;SDS011;4044;49.814;7.828;2023-08-31T11:45:25;5.82;;;2.40;;
7997;SDS011;4044;49.814;7.828;2023-08-31T11:47:52;6.65;;;4.15;;
7997;SDS011;4044;49.814;7.828;2023-08-31T11:50:18;3.65;;;2.28;;
7997;SDS011;4044;49.814;7.828;2023-08-31T11:52:45;4.10;;;2.38;;
7997;SDS011;4044;49.814;7.828;2023-08-31T11:55:11;3.67;;;2.45;;
7997;SDS011;4044;49.814;7.828;2023-08-31T11:57:38;3.38;;;2.20;;
7997;SDS011;4044;49.814;7.828;2023-08-31T12:00:04;4.75;;;2.53;;
7997;SDS011;4044;49.814;7.828;2023-08-31T12:02:39;3.28;;;2.05;;
7997;SDS011;4044;49.814;7.828;2023-08-31T12:05:05;4.57;;;2.47;;
7997;SDS011;4044;49.814;7.828;2023-08-31T12:07:31;6.97;;;2.63;;
7997;SDS011;4044;49.814;7.828;2023-08-31T12:10:03;3.90;;;2.10;;
7997;SDS011;4044;49.814;7.828;2023-08-31T12:12:29;4.18;;;2.45;;
7997;SDS011;4044;49.814;7.828;2023-08-31T12:14:57;3.67;;;2.20;;
7997;SDS011;4044;49.814;7.828;2023-08-31T12:17:26;5.10;;;2.22;;
7997;SDS011;4044;49.814;7.828;2023-08-31T12:19:51;3.13;;;2.25;;
7997;SDS011;4044;49.814;7.828;2023-08-31T12:22:17;2.97;;;2.17;;
7997;SDS011;4044;49.814;7.828;2023-08-31T12:24:42;3.25;;;2.20;;
7997;SDS011;4044;49.814;7.828;2023-08-31T12:27:08;3.78;;;2.47;;
7997;SDS011;4044;49.814;7.828;2023-08-31T12:29:34;3.65;;;2.20;;
7997;SDS011;4044;49.814;7.828;2023-08-31T12:32:00;4.28;;;2.30;;
7997;SDS011;4044;49.814;7.828;2023-08-31T12:34:25;3.40;;;2.40;;
7997;SDS011;4044;49.814;7.828;2023-08-31T12:36:51;3.20;;;2.10;;
7997;SDS011;4044;49.814;7.828;2023-08-31T12:39:17;4.55;;;2.47;;
7997;SDS011;4044;49.814;7.828;2023-08-31T12:41:43;3.88;;;2.33;;
7997;SDS011;4044;49.814;7.828;2023-08-31T12:44:08;4.93;;;2.75;;
7997;SDS011;4044;49.814;7.828;2023-08-31T12:46:34;4.68;;;2.40;;
7997;SDS011;4044;49.814;7.828;2023-08-31T12:49:00;6.35;;;2.17;;
7997;SDS011;4044;49.814;7.828;2023-08-31T12:51:27;3.50;;;1.90;;
7997;SDS011;4044;49.814;7.828;2023-08-31T12:53:53;4.32;;;1.85;;
7997;SDS011;4044;49.814;7.828;2023-08-31T12:56:19;2.95;;;1.90;;
7997;SDS011;4044;49.814;7.828;2023-08-31T12:58:51;3.58;;;2.20;;
7997;SDS011;4044;49.814;7.828;2023-08-31T13:01:18;2.90;;;2.33;;
7997;SDS011;4044;49.814;7.828;2023-08-31T13:03:44;3.75;;;2.17;;
7997;SDS011;4044;49.814;7.828;2023-08-31T13:06:11;3.63;;;2.15;;
7997;SDS011;4044;49.814;7.828;2023-08-31T13:08:37;4.90;;;2.28;;
7997;SDS011;4044;49.814;7.828;2023-08-31T13:11:03;3.95;;;2.17;;
7997;SDS011;4044;49.814;7.828;2023-08-31T13:13:30;4.85;;;2.30;;
7997;SDS011;4044;49.814;7.828;2023-08-31T13:15:56;3.63;;;2.35;;
7997;SDS011;4044;49.814;7.828;2023-08-31T13:18:22;3.47;;;2.15;;
7997;SDS011;4044;49.814;7.828;2023-08-31T13:20:54;3.88;;;2.50;;
7997;SDS011;4044;49.814;7.828;2023-08-31T13:23:20;3.05;;;2.15;;
7997;SDS011;4044;49.814;7.828;2023-08-31T13:25:46;3.60;;;2.47;;
7997;SDS011;4044;49.814;7.828;2023-08-31T13:28:13;3.83;;;2.20;;
7997;SDS011;4044;49.814;7.828;2023-08-31T13:30:39;4.50;;;2.20;;
7997;SDS011;4044;49.814;7.828;2023-08-31T13:33:04;4.53;;;2.40;;
7997;SDS011;4044;49.814;7.828;2023-08-31T13:35:31;2.60;;;2.40;;
7997;SDS011;4044;49.814;7.828;2023-08-31T13:37:57;3.92;;;2.13;;
7997;SDS011;4044;49.814;7.828;2023-08-31T13:40:23;4.20;;;2.28;;
7997;SDS011;4044;49.814;7.828;2023-08-31T13:42:52;3.22;;;2.13;;
7997;SDS011;4044;49.814;7.828;2023-08-31T13:45:24;4.57;;;2.30;;
7997;SDS011;4044;49.814;7.828;2023-08-31T13:47:50;3.58;;;2.38;;
7997;SDS011;4044;49.814;7.828;2023-08-31T13:50:16;5.22;;;2.63;;
7997;SDS011;4044;49.814;7.828;2023-08-31T13:52:41;4.50;;;2.40;;
7997;SDS011;4044;49.814;7.828;2023-08-31T13:55:07;5.00;;;2.20;;
7997;SDS011;4044;49.814;7.828;2023-08-31T13:57:33;3.05;;;2.33;;
7997;SDS011;4044;49.814;7.828;2023-08-31T13:59:58;2.13;;;1.92;;
7997;SDS011;4044;49.814;7.828;2023-08-31T14:02:25;4.90;;;2.42;;
7997;SDS011;4044;49.814;7.828;2023-08-31T14:04:50;2.63;;;2.30;;
7997;SDS011;4044;49.814;7.828;2023-08-31T14:07:16;3.17;;;2.10;;
7997;SDS011;4044;49.814;7.828;2023-08-31T14:09:42;3.63;;;2.33;;
7997;SDS011;4044;49.814;7.828;2023-08-31T14:12:08;4.53;;;2.30;;
7997;SDS011;4044;49.814;7.828;2023-08-31T14:14:34;4.00;;;2.60;;
7997;SDS011;4044;49.814;7.828;2023-08-31T14:17:00;4.03;;;2.20;;
7997;SDS011;4044;49.814;7.828;2023-08-31T14:19:26;2.88;;;2.28;;
7997;SDS011;4044;49.814;7.828;2023-08-31T14:21:51;3.40;;;2.30;;
7997;SDS011;4044;49.814;7.828;2023-08-31T14:24:18;5.18;;;2.63;;
7997;SDS011;4044;49.814;7.828;2023-08-31T14:26:44;5.05;;;2.33;;
7997;SDS011;4044;49.814;7.828;2023-08-31T14:29:10;5.55;;;2.38;;
7997;SDS011;4044;49.814;7.828;2023-08-31T14:31:36;4.97;;;2.70;;
7997;SDS011;4044;49.814;7.828;2023-08-31T14:34:02;4.32;;;2.40;;
7997;SDS011;4044;49.814;7.828;2023-08-31T14:36:27;4.93;;;2.50;;
7997;SDS011;4044;49.814;7.828;2023-08-31T14:38:53;4.70;;;2.35;;
7997;SDS011;4044;49.814;7.828;2023-08-31T14:41:19;5.05;;;2.55;;
7997;SDS011;4044;49.814;7.828;2023-08-31T14:43:44;3.72;;;2.30;;
7997;SDS011;4044;49.814;7.828;2023-08-31T14:46:10;5.30;;;2.55;;
7997;SDS011;4044;49.814;7.828;2023-08-31T14:48:35;4.43;;;2.20;;
7997;SDS011;4044;49.814;7.828;2023-08-31T14:51:01;2.88;;;2.35;;
7997;SDS011;4044;49.814;7.828;2023-08-31T14:53:27;4.60;;;2.47;;
7997;SDS011;4044;49.814;7.828;2023-08-31T14:55:53;4.63;;;2.30;;
7997;SDS011;4044;49.814;7.828;2023-08-31T14:58:18;2.88;;;2.00;;
7997;SDS011;4044;49.814;7.828;2023-08-31T15:00:44;3.88;;;2.58;;
7997;SDS011;4044;49.814;7.828;2023-08-31T15:03:10;5.82;;;2.60;;